Time;durP1;ratioP1;P1;durP2;ratioP2;P2;SDS_P1;SDS_P2;PMS_P1;PMS_P2;Temp;Humidity;BMP_temperature;BMP_pressure;BME280_temperature;BME280_humidity;BME280_pressure;Samples;Min_cycle;Max_cycle;Signal;HPM_P1;HPM_P2
2021/11/01 00:01:21;;;;;;;;;5.25;2.75;;;;;20.67;44.45;99337.63;5058019;28;53735;-77
2021/11/01 00:03:46;;;;;;;;;3.00;2.25;;;;;20.66;44.41;99341.22;5042450;28;45459;-77
2021/11/01 00:06:12;;;;;;;;;3.00;3.00;;;;;20.63;44.66;99337.91;5054106;28;45353;-78
2021/11/01 00:08:37;;;;;;;;;3.00;3.00;;;;;20.60;44.24;99336.28;5075926;28;45488;-77
2021/11/01 00:11:03;;;;;;;;;3.00;3.00;;;;;20.63;44.44;99330.78;5058742;28;46273;-78
2021/11/01 00:13:28;;;;;;;;;4.25;3.00;;;;;20.61;44.56;99330.03;5059063;28;45205;-77
2021/11/01 00:15:54;;;;;;;;;4.00;2.25;;;;;20.58;44.59;99327.53;5060122;28;45274;-77
2021/11/01 00:18:19;;;;;;;;;4.00;1.50;;;;;20.56;44.46;99329.41;5058959;28;45183;-77
2021/11/01 00:20:45;;;;;;;;;5.00;2.25;;;;;20.57;44.55;99331.97;5059344;28;63376;-77
2021/11/01 00:23:10;;;;;;;;;4.00;2.50;;;;;20.57;44.51;99337.28;5058847;28;46033;-77
2021/11/01 00:25:35;;;;;;;;;7.75;3.25;;;;;20.54;44.48;99321.53;5059671;28;45215;-77
2021/11/01 00:28:03;;;;;;;;;5.25;2.00;;;;;20.57;44.34;99325.81;5058572;28;49184;-77
2021/11/01 00:30:28;;;;;;;;;3.75;3.00;;;;;20.58;44.78;99327.53;5058400;28;47328;-79
2021/11/01 00:32:53;;;;;;;;;3.50;2.00;;;;;20.56;44.69;99316.16;5025058;28;50826;-77
2021/11/01 00:35:19;;;;;;;;;4.00;2.25;;;;;20.58;44.63;99312.47;5059896;28;45334;-77
2021/11/01 00:37:45;;;;;;;;;2.50;1.75;;;;;20.56;44.42;99308.22;5058822;28;45438;-77
2021/11/01 00:40:10;;;;;;;;;3.75;2.25;;;;;20.60;44.45;99307.97;5058296;28;47065;-78
2021/11/01 00:42:39;;;;;;;;;4.25;2.00;;;;;20.61;44.54;99308.81;5058789;28;45441;-78
2021/11/01 00:45:05;;;;;;;;;3.50;2.50;;;;;20.59;44.31;99298.31;5058518;28;45240;-78
2021/11/01 00:47:30;;;;;;;;;2.75;2.25;;;;;20.63;44.60;99303.44;5058501;28;45757;-77
2021/11/01 00:49:56;;;;;;;;;2.75;2.00;;;;;20.64;44.56;99295.38;5058365;28;45508;-78
2021/11/01 00:52:25;;;;;;;;;4.00;4.00;;;;;20.66;44.84;99296.16;5025110;28;45254;-77
2021/11/01 00:54:52;;;;;;;;;5.00;2.50;;;;;20.65;44.41;99283.84;5058562;28;45488;-77
2021/11/01 00:57:18;;;;;;;;;4.00;2.50;;;;;20.66;44.56;99287.34;5041720;28;45526;-77
2021/11/01 00:59:43;;;;;;;;;4.00;3.00;;;;;20.64;44.36;99292.75;5051045;28;45419;-77
2021/11/01 01:02:12;;;;;;;;;2.00;2.00;;;;;20.61;44.50;99279.66;5042701;28;54019;-77
2021/11/01 01:04:37;;;;;;;;;4.00;2.00;;;;;20.58;44.71;99277.16;5025257;28;45250;-77
2021/11/01 01:07:24;;;;;;;;;3.50;2.00;;;;;20.57;44.51;99271.00;5041695;28;45494;-76
2021/11/01 01:09:49;;;;;;;;;1.25;1.25;;;;;20.56;44.39;99276.41;5043476;28;46043;-77
2021/11/01 01:12:15;;;;;;;;;3.50;2.75;;;;;20.55;44.40;99272.03;5061452;28;45888;-76
2021/11/01 01:14:54;;;;;;;;;3.25;2.00;;;;;20.52;44.68;99269.56;5061550;28;45333;-76
2021/11/01 01:17:21;;;;;;;;;3.00;3.00;;;;;20.50;44.68;99276.72;5063567;28;45895;-76
2021/11/01 01:19:58;;;;;;;;;3.00;2.00;;;;;20.48;44.50;99268.88;5057925;28;47850;-76
2021/11/01 01:22:34;;;;;;;;;4.25;3.00;;;;;20.49;44.37;99264.41;5056743;28;45386;-77
2021/11/01 01:25:22;;;;;;;;;4.00;3.00;;;;;20.50;44.67;99259.06;5046593;28;45297;-77
2021/11/01 01:27:49;;;;;;;;;3.50;2.25;;;;;20.48;44.25;99260.06;5046722;28;45223;-76
2021/11/01 01:30:14;;;;;;;;;5.25;4.00;;;;;20.48;44.65;99260.91;5044594;28;45463;-76
2021/11/01 01:32:40;;;;;;;;;3.25;3.25;;;;;20.46;44.60;99251.34;5061267;28;45647;-76
2021/11/01 01:35:07;;;;;;;;;4.25;3.00;;;;;20.48;44.70;99255.63;5044831;28;45265;-77
2021/11/01 01:37:32;;;;;;;;;5.50;4.75;;;;;20.46;44.83;99252.19;5044603;28;45267;-76
2021/11/01 01:39:57;;;;;;;;;4.75;3.50;;;;;20.45;44.47;99258.44;5061050;28;48989;-77
2021/11/01 01:42:23;;;;;;;;;5.00;3.00;;;;;20.42;44.28;99255.94;5062394;28;45351;-77
2021/11/01 01:44:48;;;;;;;;;5.00;3.50;;;;;20.40;44.48;99254.28;5062330;28;48177;-77
2021/11/01 01:47:14;;;;;;;;;3.00;3.00;;;;;20.43;44.68;99255.03;5060882;28;45505;-77
2021/11/01 01:49:39;;;;;;;;;2.50;2.00;;;;;20.43;44.75;99248.84;5061331;28;46158;-77
2021/11/01 01:52:05;;;;;;;;;2.25;2.25;;;;;20.43;44.26;99248.84;5061936;28;47355;-77
2021/11/01 01:54:30;;;;;;;;;2.75;2.00;;;;;20.44;44.61;99238.19;5060831;28;45454;-77
2021/11/01 01:56:56;;;;;;;;;5.00;2.50;;;;;20.45;44.60;99247.84;5043990;28;45488;-77
2021/11/01 01:59:21;;;;;;;;;2.75;1.75;;;;;20.45;44.30;99236.38;5061048;28;45571;-76
2021/11/01 02:01:47;;;;;;;;;2.50;1.50;;;;;20.44;44.13;99248.78;5044099;28;45344;-77
2021/11/01 02:04:20;;;;;;;;;2.00;2.00;;;;;20.47;44.23;99240.66;5061233;28;45328;-77
2021/11/01 02:06:49;;;;;;;;;3.25;3.00;;;;;20.49;44.17;99246.72;5044211;28;45419;-77
2021/11/01 02:09:21;;;;;;;;;2.00;2.00;;;;;20.52;44.21;99246.56;5061849;28;45239;-77
2021/11/01 02:11:56;;;;;;;;;2.75;1.25;;;;;20.53;44.34;99242.13;5061894;28;45327;-77
2021/11/01 02:14:25;;;;;;;;;3.75;1.75;;;;;20.48;44.18;99237.06;5062101;28;45409;-76
2021/11/01 02:16:51;;;;;;;;;3.00;2.00;;;;;20.49;43.96;99240.56;5044513;28;45220;-77
2021/11/01 02:19:18;;;;;;;;;2.00;1.75;;;;;20.48;44.22;99231.75;5027184;28;47313;-77
2021/11/01 02:22:02;;;;;;;;;4.75;2.00;;;;;20.44;43.71;99224.94;5060656;28;46006;-78
2021/11/01 02:24:48;;;;;;;;;1.75;1.00;;;;;20.43;43.95;99238.25;5045159;28;45418;-78
2021/11/01 02:27:14;;;;;;;;;2.75;2.75;;;;;20.40;44.11;99244.53;5061851;28;45426;-77
2021/11/01 02:29:42;;;;;;;;;2.00;2.00;;;;;20.41;44.33;99245.41;5027204;28;47999;-77
2021/11/01 02:32:08;;;;;;;;;2.75;2.75;;;;;20.40;44.12;99243.69;5060706;28;45279;-77
2021/11/01 02:34:34;;;;;;;;;2.50;2.50;;;;;20.39;44.04;99232.25;5046204;28;45699;-77
2021/11/01 02:36:59;;;;;;;;;2.50;1.75;;;;;20.38;44.28;99240.28;5055699;28;45255;-76
2021/11/01 02:39:32;;;;;;;;;3.00;2.25;;;;;20.39;44.24;99241.97;5026771;28;45298;-76
2021/11/01 02:41:59;;;;;;;;;2.25;2.25;;;;;20.38;44.41;99241.13;5060398;28;45360;-77
2021/11/01 02:44:28;;;;;;;;;4.75;2.25;;;;;20.40;44.18;99249.00;5060571;28;45269;-77
2021/11/01 02:46:53;;;;;;;;;3.00;3.00;;;;;20.41;44.34;99253.34;5042541;28;45438;-77
2021/11/01 02:49:24;;;;;;;;;2.75;2.00;;;;;20.25;44.08;99225.06;5060245;28;45404;-76
2021/11/01 02:51:49;;;;;;;;;4.00;2.00;;;;;20.19;44.06;99213.94;5060428;28;45627;-77
2021/11/01 02:54:14;;;;;;;;;3.25;2.00;;;;;20.32;44.29;99225.56;5060207;28;45244;-76
2021/11/01 02:56:41;;;;;;;;;2.00;1.00;;;;;20.38;44.10;99245.56;5061027;28;45343;-76
2021/11/01 02:59:07;;;;;;;;;1.75;1.00;;;;;20.37;44.29;99250.03;5060027;28;45479;-76
2021/11/01 03:01:32;;;;;;;;;1.75;1.50;;;;;20.39;43.98;99249.94;5059318;28;53641;-77
2021/11/01 03:03:58;;;;;;;;;2.00;2.00;;;;;20.42;44.05;99248.00;5043572;28;45517;-77
2021/11/01 03:06:24;;;;;;;;;2.00;2.00;;;;;20.41;44.00;99240.94;5043059;28;45475;-77
2021/11/01 03:08:51;;;;;;;;;3.00;3.00;;;;;20.48;43.98;99252.09;5060001;28;46598;-77
2021/11/01 03:11:16;;;;;;;;;6.25;2.75;;;;;20.48;44.09;99255.63;5042820;28;45276;-77
2021/11/01 03:13:42;;;;;;;;;5.25;1.50;;;;;20.49;43.98;99236.13;5061361;28;45300;-77
2021/11/01 03:16:07;;;;;;;;;1.75;1.75;;;;;20.49;44.13;99237.91;5025940;28;51356;-77
2021/11/01 03:18:50;;;;;;;;;2.00;2.00;;;;;20.50;43.98;99236.97;5061132;28;47023;-77
2021/11/01 03:21:17;;;;;;;;;3.00;1.25;;;;;20.47;43.96;99245.97;5059711;28;45405;-77
2021/11/01 03:23:46;;;;;;;;;7.00;2.75;;;;;20.49;44.03;99249.38;5043388;28;45357;-77
2021/11/01 03:26:15;;;;;;;;;2.00;1.00;;;;;20.49;43.72;99240.56;5042663;28;45615;-77
2021/11/01 03:28:40;;;;;;;;;2.00;2.00;;;;;20.48;43.72;99245.00;5026852;28;47274;-77
2021/11/01 03:31:06;;;;;;;;;1.50;1.50;;;;;20.46;43.78;99248.69;5026065;28;45364;-77
2021/11/01 03:33:37;;;;;;;;;1.00;1.00;;;;;20.43;43.61;99247.09;5026028;28;45344;-77
2021/11/01 03:36:04;;;;;;;;;2.50;2.50;;;;;20.40;43.59;99249.84;5043725;28;45338;-77
2021/11/01 03:38:30;;;;;;;;;3.25;2.00;;;;;20.39;43.62;99260.53;5060480;28;45424;-77
2021/11/01 03:40:55;;;;;;;;;1.00;1.00;;;;;20.37;43.69;99260.63;5059389;28;45394;-77
2021/11/01 03:43:35;;;;;;;;;2.25;1.00;;;;;20.36;43.93;99279.25;5059658;28;45334;-77
2021/11/01 03:46:03;;;;;;;;;3.00;2.00;;;;;20.33;43.82;99273.19;5045321;28;45331;-77
2021/11/01 03:48:34;;;;;;;;;2.75;2.00;;;;;20.33;43.60;99267.03;5057427;28;46211;-77
2021/11/01 03:51:08;;;;;;;;;1.50;1.50;;;;;20.31;43.35;99271.53;5044160;28;45371;-77
2021/11/01 03:53:33;;;;;;;;;1.00;1.00;;;;;20.30;43.68;99273.34;5044397;28;45277;-77
2021/11/01 03:55:59;;;;;;;;;1.75;1.75;;;;;20.30;43.91;99276.00;5058958;28;45268;-77
2021/11/01 03:58:25;;;;;;;;;2.75;0.75;;;;;20.30;43.90;99270.69;5058926;28;46746;-77
2021/11/01 04:00:52;;;;;;;;;0.50;0.50;;;;;20.27;43.69;99273.53;5042501;28;45759;-77
2021/11/01 04:03:21;;;;;;;;;1.00;1.00;;;;;20.27;43.40;99268.22;5060456;28;45276;-77
2021/11/01 04:05:48;;;;;;;;;0.50;0.50;;;;;20.23;43.68;99264.00;5042670;28;45323;-77
2021/11/01 04:08:14;;;;;;;;;2.00;2.00;;;;;20.24;43.72;99281.66;5058912;28;47086;-77
2021/11/01 04:10:39;;;;;;;;;1.75;1.75;;;;;20.23;43.81;99273.75;5059782;28;54988;-77
2021/11/01 04:13:05;;;;;;;;;3.25;1.00;;;;;20.24;43.72;99280.75;5058817;28;45170;-77
2021/11/01 04:15:36;;;;;;;;;1.00;1.00;;;;;20.21;43.83;99270.34;5025460;28;45484;-77
2021/11/01 04:18:04;;;;;;;;;2.00;1.00;;;;;20.22;44.05;99278.19;5059023;28;45443;-77
2021/11/01 04:20:38;;;;;;;;;2.00;2.00;;;;;20.25;43.76;99274.53;5059184;28;45207;-77
2021/11/01 04:23:07;;;;;;;;;2.00;1.00;;;;;20.29;43.77;99278.72;5059440;28;45287;-77
2021/11/01 04:25:33;;;;;;;;;1.50;0.00;;;;;20.29;43.36;99276.06;5042333;28;45203;-77
2021/11/01 04:28:00;;;;;;;;;1.00;1.00;;;;;20.31;43.60;99287.44;5042148;28;45438;-77
2021/11/01 04:30:27;;;;;;;;;1.50;1.50;;;;;20.31;43.52;99287.44;5042009;28;45385;-77
2021/11/01 04:32:57;;;;;;;;;3.50;1.00;;;;;20.32;43.49;99284.69;5043743;28;45269;-77
2021/11/01 04:35:27;;;;;;;;;2.25;1.00;;;;;20.33;43.44;99278.50;5054412;28;45275;-77
2021/11/01 04:38:09;;;;;;;;;3.00;1.25;;;;;20.36;43.14;99280.13;5059272;28;48200;-77
2021/11/01 04:41:04;;;;;;;;;2.00;2.00;;;;;20.39;43.35;99290.53;5043901;28;45367;-77
2021/11/01 04:54:34;;;;;;;;;1.00;1.00;;;;;20.33;43.23;99275.84;5062230;28;45262;-77
2021/11/01 04:57:00;;;;;;;;;1.00;0.00;;;;;20.32;43.44;99279.41;5061747;28;45937;-77
2021/11/01 04:59:25;;;;;;;;;0.00;0.00;;;;;20.31;43.23;99282.16;5045203;28;47437;-77
2021/11/01 05:01:52;;;;;;;;;2.50;0.25;;;;;20.29;43.22;99276.94;5061701;28;45188;-77
2021/11/01 05:04:22;;;;;;;;;0.75;0.75;;;;;20.27;43.52;99278.81;5062347;28;45244;-77
2021/11/01 05:07:01;;;;;;;;;1.00;1.00;;;;;20.28;43.39;99282.31;5046427;28;45773;-77
2021/11/01 05:09:31;;;;;;;;;2.00;1.00;;;;;20.27;43.32;99280.63;5061303;28;48196;-77
2021/11/01 05:27:59;;;;;;;;;1.00;1.00;;;;;20.18;43.58;99283.75;5060095;28;45528;-77
2021/11/01 05:30:48;;;;;;;;;0.25;0.25;;;;;20.14;43.62;99279.53;5061552;28;45457;-77
2021/11/01 05:35:39;;;;;;;;;3.50;1.00;;;;;20.18;43.91;99281.97;5044691;28;45355;-77
2021/11/01 05:38:04;;;;;;;;;0.00;0.00;;;;;20.19;43.72;99286.31;5044632;28;45427;-77
2021/11/01 05:40:30;;;;;;;;;1.00;1.00;;;;;20.22;43.59;99278.19;5027510;28;46748;-77
2021/11/01 05:42:56;;;;;;;;;0.00;0.00;;;;;20.22;43.41;99283.50;5061292;28;45391;-76
2021/11/01 05:45:21;;;;;;;;;1.00;1.00;;;;;20.26;43.51;99285.06;5044164;28;47122;-77
2021/11/01 05:47:54;;;;;;;;;1.50;0.00;;;;;20.26;43.42;99276.25;5044003;28;52671;-77
2021/11/01 05:50:22;;;;;;;;;0.50;0.00;;;;;20.29;43.58;99289.31;5029725;28;48496;-77
2021/11/01 05:52:47;;;;;;;;;2.00;0.00;;;;;20.31;43.60;99288.28;5050481;28;45401;-76
2021/11/01 05:58:43;;;;;;;;;1.00;1.00;;;;;20.33;43.46;99296.19;5044112;28;45307;-77
2021/11/01 06:15:57;;;;;;;;;1.75;1.00;;;;;20.33;43.63;99323.53;5047097;28;45253;-77
2021/11/01 06:18:29;;;;;;;;;1.25;1.00;;;;;20.33;43.43;99322.69;5044106;28;46308;-78
2021/11/01 06:20:54;;;;;;;;;0.00;0.00;;;;;20.33;43.28;99327.97;5045598;28;48334;-75
2021/11/01 06:23:23;;;;;;;;;1.75;0.25;;;;;20.32;43.28;99327.09;5059793;28;64256;-78
2021/11/01 06:25:51;;;;;;;;;0.25;0.25;;;;;20.28;43.33;99327.34;5060434;28;45330;-77
2021/11/01 06:28:17;;;;;;;;;0.00;0.00;;;;;20.28;43.36;99322.06;5044332;28;45341;-77
2021/11/01 06:30:50;;;;;;;;;0.75;0.75;;;;;20.25;43.33;99322.25;5060287;28;45907;-77
2021/11/01 06:33:49;;;;;;;;;4.50;1.75;;;;;20.24;43.26;99326.69;5060596;28;46277;-77
2021/11/01 06:45:17;;;;;;;;;2.00;1.00;;;;;20.26;43.46;99332.75;4998440;28;45607;-77
2021/11/01 06:58:41;;;;;;;;;1.00;1.00;;;;;20.21;43.53;99342.72;5050262;28;45267;-77
2021/11/01 07:18:12;;;;;;;;;1.00;0.00;;;;;20.27;43.24;99344.19;5023381;28;45413;-77
2021/11/01 08:24:28;;;;;;;;;1.00;1.00;;;;;20.47;43.36;99372.31;5045382;28;45294;-75
2021/11/01 08:37:37;;;;;;;;;1.00;0.75;;;;;20.73;43.10;99384.16;5055088;28;45484;-78
2021/11/01 08:40:20;;;;;;;;;1.00;1.00;;;;;20.74;43.25;99376.13;5052139;28;45270;-77
2021/11/01 09:27:06;;;;;;;;;0.00;0.00;;;;;21.10;42.17;99388.31;5042006;28;45941;-78
2021/11/01 09:42:58;;;;;;;;;1.00;0.25;;;;;21.28;41.83;99373.19;5061339;28;45329;-77
2021/11/01 09:45:24;;;;;;;;;0.00;0.00;;;;;21.36;41.58;99378.91;5061268;28;45327;-78
2021/11/01 09:47:55;;;;;;;;;1.50;0.25;;;;;21.41;41.73;99380.38;5044237;28;47104;-79
2021/11/01 09:50:22;;;;;;;;;1.25;1.00;;;;;21.46;41.73;99382.78;5061200;28;45253;-77
2021/11/01 09:52:56;;;;;;;;;0.50;0.50;;;;;21.43;41.51;99364.34;5061295;28;45334;-77
2021/11/01 10:00:51;;;;;;;;;1.00;1.00;;;;;21.59;41.12;99372.31;5061336;28;45347;-77
2021/11/01 10:03:16;;;;;;;;;1.00;1.00;;;;;21.59;41.38;99367.00;5047460;28;45151;-77
2021/11/01 10:05:57;;;;;;;;;2.00;1.25;;;;;21.62;40.96;99377.41;5060780;28;54012;-76
2021/11/01 10:08:23;;;;;;;;;1.00;1.00;;;;;21.61;40.64;99373.06;5061850;28;46116;-77
2021/11/01 10:10:48;;;;;;;;;1.00;1.00;;;;;21.62;41.00;99370.31;5027268;28;45696;-77
2021/11/01 10:13:16;;;;;;;;;0.50;0.50;;;;;21.66;40.88;99374.50;5027377;28;45236;-77
2021/11/01 10:18:55;;;;;;;;;0.50;0.50;;;;;21.57;40.50;99363.56;5060989;28;45421;-80
2021/11/01 10:21:19;;;;;;;;;1.00;0.75;;;;;21.63;40.70;99363.19;5045695;28;45293;-77
2021/11/01 10:23:55;;;;;;;;;0.00;0.00;;;;;21.55;40.22;99363.66;5027425;28;45322;-78
2021/11/01 10:26:29;;;;;;;;;0.25;0.00;;;;;21.60;40.79;99360.72;5043667;28;45269;-78
2021/11/01 10:28:55;;;;;;;;;0.00;0.00;;;;;21.67;40.26;99372.72;5045440;28;48428;-76
2021/11/01 10:31:23;;;;;;;;;0.75;0.75;;;;;21.68;40.52;99382.38;5043844;28;45765;-78
2021/11/01 10:33:49;;;;;;;;;2.50;1.00;;;;;21.66;40.45;99368.34;5043984;28;45269;-78
2021/11/01 10:36:30;;;;;;;;;1.00;1.00;;;;;21.70;40.24;99377.84;5043849;28;45495;-78
2021/11/01 10:39:03;;;;;;;;;1.00;1.00;;;;;21.69;40.21;99384.94;5061489;28;45525;-77
2021/11/01 10:41:41;;;;;;;;;0.00;0.00;;;;;21.67;40.09;99370.91;5044585;28;45415;-77
2021/11/01 11:13:08;;;;;;;;;11.25;5.25;;;;;21.84;40.80;99331.88;5059744;28;45397;-76
2021/11/01 11:15:37;;;;;;;;;7.75;3.50;;;;;21.85;40.62;99339.75;5050214;28;45326;-76
2021/11/01 11:18:13;;;;;;;;;7.75;3.50;;;;;21.83;41.09;99330.19;5052339;28;45373;-76
2021/11/01 11:27:32;;;;;;;;;3.00;0.00;;;;;21.47;39.23;99314.63;5042174;28;45443;-75
2021/11/01 11:29:53;;;;;;;;;1.50;0.50;;;;;21.22;39.75;99309.84;5069546;27;45425;-75
2021/11/01 11:49:19;;;;;;;;;2.00;1.00;;;;;20.70;39.56;99342.78;5047641;28;45245;-86
2021/11/01 11:51:58;;;;;;;;;0.00;0.00;;;;;20.64;40.36;99340.47;5059818;28;45452;-77
2021/11/01 11:54:38;;;;;;;;;1.00;1.00;;;;;20.67;41.03;99348.22;5060888;28;45599;-77
2021/11/01 12:04:52;;;;;;;;;;;;;;;;;;;;;
2021/11/01 12:07:18;;;;;;;;;0.25;0.25;;;;;21.15;40.53;99325.25;5017500;28;72355;-73
2021/11/01 12:10:00;;;;;;;;;0.25;0.25;;;;;21.31;39.99;99322.59;5050419;28;46000;-73
2021/11/01 12:12:57;;;;;;;;;0.75;0.75;;;;;21.39;40.16;99323.88;5060358;28;45409;-76
2021/11/01 12:17:04;;;;;;;;;1.00;0.25;;;;;21.51;40.01;99318.78;5050489;28;45593;-76
2021/11/01 12:18:35;;;;;;;;;2.75;1.75;;;;;21.58;39.51;99323.66;5046606;28;45526;-74
2021/11/01 12:21:03;;;;;;;;;0.25;0.25;;;;;21.62;39.18;99306.59;5043671;28;45550;-78
2021/11/01 12:23:44;;;;;;;;;2.00;0.75;;;;;21.58;39.26;99298.91;5042968;28;45839;-84
2021/11/01 12:26:10;;;;;;;;;2.25;0.75;;;;;21.73;39.58;99309.47;5075465;28;45445;-79
2021/11/01 12:28:36;;;;;;;;;3.00;2.00;;;;;21.75;39.97;99309.38;5060230;28;45430;-78
2021/11/01 12:31:01;;;;;;;;;0.75;0.50;;;;;21.79;39.97;99308.25;5041498;28;45362;-75
2021/11/01 12:33:32;;;;;;;;;4.50;2.00;;;;;21.81;40.07;99303.72;5041957;28;45497;-76
2021/11/01 12:36:03;;;;;;;;;3.25;2.00;;;;;21.79;40.20;99281.69;5042217;28;45404;-75
2021/11/01 12:39:25;;;;;;;;;;;;;;;;;;;;;
2021/11/01 12:42:20;;;;;;;;;1.75;1.25;;;;;21.77;40.48;99270.31;4980543;28;75619;-75
2021/11/01 12:59:38;;;;;;;;;7.25;3.00;;;;;21.85;41.40;99249.44;5043820;28;45423;-77
2021/11/01 13:02:03;;;;;;;;;7.00;2.25;;;;;21.90;41.88;99252.69;5042994;28;46287;-76
2021/11/01 13:04:36;;;;;;;;;5.00;2.00;;;;;21.92;41.94;99255.25;5041512;28;47220;-73
2021/11/01 13:09:34;;;;;;;;;3.75;1.00;;;;;22.00;42.27;99263.59;5061647;28;45384;-74
2021/11/01 13:20:38;;;;;;;;;5.75;2.00;;;;;22.14;41.99;99225.56;5041487;28;45287;-73
2021/11/01 13:23:34;;;;;;;;;1.50;1.00;;;;;22.14;42.41;99234.41;5058303;28;45792;-73
2021/11/01 13:36:16;;;;;;;;;0.00;0.00;;;;;21.91;40.05;99232.28;5062600;28;45391;-72
2021/11/01 13:38:50;;;;;;;;;1.25;0.00;;;;;21.73;40.41;99215.69;5061049;28;47277;-72
2021/11/01 13:44:08;;;;;;;;;0.00;0.00;;;;;21.56;40.08;99218.50;5046066;28;45282;-70
2021/11/01 13:46:36;;;;;;;;;1.50;0.50;;;;;21.47;39.93;99209.28;5041601;28;45713;-71
2021/11/01 13:49:03;;;;;;;;;0.25;0.25;;;;;21.45;40.80;99206.72;5060922;28;45490;-72
2021/11/01 13:52:41;;;;;;;;;1.00;1.00;;;;;21.50;40.70;99216.22;5043980;28;45766;-66
2021/11/01 14:11:44;;;;;;;;;2.75;2.00;;;;;21.70;43.11;99259.19;5037663;28;45381;-72
2021/11/01 14:17:04;;;;;;;;;5.25;4.25;;;;;21.76;44.02;99250.00;5042956;28;45643;-71
2021/11/01 14:28:21;;;;;;;;;8.00;4.25;;;;;21.47;43.46;99224.38;5060239;28;45480;-72
2021/11/01 14:36:37;;;;;;;;;5.00;4.00;;;;;21.59;44.06;99240.41;5058767;28;45439;-72
2021/11/01 14:57:18;;;;;;;;;2.00;1.00;;;;;21.96;44.67;99300.13;5043054;28;45368;-72
2021/11/01 15:21:16;;;;;;;;;3.75;2.00;;;;;22.00;44.92;99290.19;5033019;28;45521;-73
2021/11/01 16:19:00;;;;;;;;;3.00;3.00;;;;;22.26;48.65;99273.50;5059421;28;45367;-72
2021/11/01 16:21:26;;;;;;;;;7.25;4.25;;;;;22.23;47.78;99265.72;5042168;28;45581;-73
2021/11/01 16:23:58;;;;;;;;;4.00;2.00;;;;;22.20;48.21;99265.06;5058095;28;45496;-74
2021/11/01 16:26:28;;;;;;;;;5.50;4.00;;;;;22.12;47.70;99259.38;5057613;28;45364;-72
2021/11/01 16:29:12;;;;;;;;;6.00;3.00;;;;;22.08;48.23;99266.69;5075615;27;45379;-71
2021/11/01 16:31:56;;;;;;;;;8.50;7.00;;;;;22.05;47.93;99271.28;5044572;28;45439;-73
2021/11/01 16:34:25;;;;;;;;;5.00;3.00;;;;;22.02;47.78;99265.22;5046661;28;47094;-73
2021/11/01 16:39:20;;;;;;;;;3.00;2.00;;;;;21.94;47.62;99267.47;5060725;28;45345;-72
2021/11/01 16:41:47;;;;;;;;;5.25;5.00;;;;;21.89;47.89;99272.25;5042967;28;45409;-72
2021/11/01 16:44:24;;;;;;;;;6.25;3.00;;;;;21.86;47.80;99264.44;5062308;28;45385;-73
2021/11/01 16:46:52;;;;;;;;;3.25;3.25;;;;;21.81;47.98;99263.03;5063404;28;45353;-73
2021/11/01 16:49:21;;;;;;;;;5.25;4.50;;;;;21.74;47.87;99265.19;5045817;28;45272;-73
2021/11/01 16:51:53;;;;;;;;;7.00;3.00;;;;;21.73;48.14;99272.31;5045148;28;45356;-73
2021/11/01 16:54:37;;;;;;;;;6.25;3.50;;;;;21.75;48.18;99266.03;5061772;28;45367;-73
2021/11/01 16:57:14;;;;;;;;;4.00;2.50;;;;;21.71;47.96;99268.88;5063040;28;45316;-73
2021/11/01 17:02:52;;;;;;;;;4.00;4.00;;;;;21.77;48.07;99293.34;5062252;28;45445;-72
2021/11/01 17:35:11;;;;;;;;;8.00;7.00;;;;;22.03;51.04;99295.28;5053452;28;45273;-71
2021/11/01 18:36:16;;;;;;;;;5.25;4.25;;;;;21.43;46.67;99328.06;5061642;28;45323;-76
2021/11/01 18:40:41;;;;;;;;;9.75;7.25;;;;;21.11;47.55;99337.84;5045074;28;45323;-75
2021/11/01 18:51:30;;;;;;;;;16.50;13.75;;;;;20.95;46.16;99336.13;5044058;28;45391;-75
2021/11/01 18:54:08;;;;;;;;;14.50;14.25;;;;;20.78;46.64;99340.56;5057522;28;46512;-76
2021/11/01 18:56:35;;;;;;;;;11.50;8.00;;;;;20.75;46.52;99334.56;5058389;28;46386;-74
2021/11/01 18:59:05;;;;;;;;;14.00;11.25;;;;;20.75;47.28;99329.25;5041406;28;45547;-76
2021/11/01 19:01:40;;;;;;;;;10.25;8.25;;;;;20.71;45.96;99336.53;5038949;28;45487;-76
2021/11/01 19:04:14;;;;;;;;;12.75;11.00;;;;;20.65;45.81;99334.22;5040092;28;47833;-74
2021/11/01 19:09:16;;;;;;;;;12.25;7.00;;;;;20.45;45.81;99329.16;5039708;28;45553;-75
2021/11/01 20:06:39;;;;;;;;;15.50;12.75;;;;;19.94;47.03;99315.03;5037264;28;45468;-78
2021/11/01 21:26:24;;;;;;;;;11.25;8.75;;;;;20.67;48.19;99300.50;5038020;28;45399;-74
2021/11/01 21:29:10;;;;;;;;;9.75;8.00;;;;;20.68;48.17;99304.91;5022491;28;45423;-74
2021/11/01 21:31:46;;;;;;;;;7.50;7.25;;;;;20.68;48.05;99306.69;5027243;28;45526;-73
2021/11/01 21:34:16;;;;;;;;;7.50;7.25;;;;;20.66;48.46;99297.94;5054906;28;45568;-73
2021/11/01 21:36:55;;;;;;;;;9.00;7.75;;;;;20.67;48.21;99297.84;5055542;28;45603;-73
2021/11/01 21:39:22;;;;;;;;;10.75;7.00;;;;;20.65;48.23;99288.28;5025516;28;45460;-73
2021/11/01 21:42:11;;;;;;;;;10.50;7.75;;;;;20.63;48.57;99276.91;5039902;28;47587;-72
2021/11/01 21:45:03;;;;;;;;;10.75;7.75;;;;;20.57;48.78;99267.50;5055422;28;46485;-73
2021/11/01 21:47:39;;;;;;;;;9.25;9.00;;;;;20.61;48.42;99274.38;5055975;28;45379;-72
2021/11/01 21:50:15;;;;;;;;;;;;;;;;;;;;;
2021/11/01 21:52:45;;;;;;;;;6.50;6.50;;;;;20.54;48.82;99255.28;5055107;28;75817;-72
2021/11/01 21:55:10;;;;;;;;;13.00;10.00;;;;;20.59;48.81;99268.28;5054333;28;45411;-72
2021/11/01 21:57:41;;;;;;;;;7.50;6.75;;;;;20.68;48.93;99274.88;5057490;28;45575;-73
2021/11/01 22:00:43;;;;;;;;;8.00;5.50;;;;;20.68;48.38;99275.75;5055863;28;45558;-73
2021/11/01 22:20:02;;;;;;;;;9.00;9.00;;;;;20.68;48.69;99262.47;5038555;28;45475;-73
2021/11/01 22:22:52;;;;;;;;;7.75;6.00;;;;;20.66;48.73;99258.19;5054979;28;45498;-74
2021/11/01 22:25:19;;;;;;;;;5.50;5.25;;;;;20.66;48.72;99259.03;5056129;28;46573;-74
2021/11/01 22:38:39;;;;;;;;;10.00;7.75;;;;;20.67;49.70;99244.84;5044650;28;45423;-75
2021/11/01 22:41:23;;;;;;;;;8.00;7.00;;;;;20.68;49.72;99245.72;5061479;28;45460;-75
2021/11/01 22:57:52;;;;;;;;;7.00;7.00;;;;;20.70;50.03;99236.72;5060213;28;45377;-74
2021/11/01 23:00:53;;;;;;;;;7.75;7.75;;;;;20.70;49.75;99228.78;5035866;28;45413;-74
2021/11/01 23:03:27;;;;;;;;;8.50;6.00;;;;;20.67;49.62;99230.72;5060057;28;45283;-74
2021/11/01 23:33:10;;;;;;;;;6.00;6.00;;;;;20.72;49.55;99212.78;5045579;28;45282;-75
2021/11/01 23:35:36;;;;;;;;;7.50;5.75;;;;;20.72;49.63;99218.94;5059293;28;47111;-75
2021/11/01 23:38:04;;;;;;;;;6.25;5.00;;;;;20.74;49.63;99208.25;5043015;28;45263;-74
2021/11/01 23:40:30;;;;;;;;;9.25;6.50;;;;;20.74;50.46;99214.38;5053269;28;46528;-75
2021/11/01 23:42:58;;;;;;;;;5.50;4.50;;;;;20.73;49.61;99211.84;5033789;28;45455;-75
2021/11/01 23:45:23;;;;;;;;;6.00;4.75;;;;;20.72;49.80;99207.47;5059692;28;45442;-75
2021/11/01 23:47:49;;;;;;;;;7.00;6.00;;;;;20.72;50.14;99216.28;5042637;28;46596;-75
2021/11/01 23:50:14;;;;;;;;;6.50;4.50;;;;;20.70;49.70;99209.38;5058669;28;47165;-75
2021/11/01 23:52:41;;;;;;;;;6.00;4.00;;;;;20.69;49.66;99210.31;5042526;28;45426;-75
2021/11/01 23:55:08;;;;;;;;;5.00;5.00;;;;;20.67;49.87;99202.41;5042697;28;45340;-75
2021/11/01 23:57:33;;;;;;;;;5.00;4.00;;;;;20.67;49.84;99205.06;5042158;28;45494;-75
2021/11/01 23:59:59;;;;;;;;;5.00;4.00;;;;;20.67;49.62;99204.22;5042100;28;46460;-75
